• Join FlightAware (Why Join?)
  • Login
  • US Flag 
06:23AM EDT


 

Airport Tracker/Info


-or-


 

Live Flight TrackerFlight Track Log ✈ UAL33 ✈ 05-Jun-2013 ✈ KIAH - KORD

Flight Track Log - Related Links

Times and Time Zones

All times are in EDT time to prevent confusion due to time zone crossing. See the UAL33 flight status page for this flight to view local times or setup timezone preferences in your user account.

Time Position Orientation Groundspeed Altitude Reporting Facility
EDT Latitude Longitude Course Direction KTS MPH feet Rate Location/Type
05:22PM 29.9778 -95.3026 86° East 171 197 1,200  Level FlightAware ADS-B
05:23PM 29.9783 -95.2986 82° East 173 199 1,400 2,640 Climbing FlightAware ADS-B
05:23PM 29.9794 -95.2949 71° East 174 200 1,600 3,000 Climbing FlightAware ADS-B
05:23PM 29.9808 -95.2918 62° Northeast 173 199 1,800 3,420 Climbing FlightAware ADS-B
05:23PM 29.9827 -95.2890 52° Northeast 176 203 2,000 1,800 Climbing FlightAware ADS-B
05:23PM 29.9947 -95.2822 26° Northeast 192 221 2,400 1,320 Climbing FlightAware ADS-B
05:23PM 30.0005 -95.2818 North 210 242 2,500 900 Climbing FlightAware ADS-B
05:23PM 30.0077 -95.2831 351° North 228 262 2,600 960 Climbing FlightAware ADS-B
05:23PM 30.0132 -95.2849 344° North 239 275 2,700 2,100 Climbing FlightAware ADS-B
05:24PM 30.0298 -95.2914 341° North 250 288 3,300 2,040 Climbing FlightAware ADS-B
05:24PM 30.0585 -95.3027 341° North 270 311 4,100 1,440 Climbing FlightAware ADS-B
05:24PM 30.0674 -95.3069 338° Northwest 273 314 4,100  Level FlightAware ADS-B
05:25PM 30.0992 -95.3299 326° Northwest 276 318 4,100 360 Level FlightAware ADS-B
05:25PM 30.1323 -95.3547 327° Northwest 278 320 4,500 1,740 Climbing FlightAware ADS-B
05:25PM 30.1506 -95.3680 328° Northwest 280 322 5,500 4,020 Climbing FlightAware ADS-B
05:26PM 30.1690 -95.3817 327° Northwest 282 325 6,800 4,140 Climbing FlightAware ADS-B
05:26PM 30.1871 -95.3951 327° Northwest 289 333 7,800 3,660 Climbing FlightAware ADS-B
05:27PM 30.2389 -95.4327 328° Northwest 301 346 10,600 3,300 Climbing FlightAware ADS-B
05:29PM 30.4445 -95.5845 328° Northwest 358 412 18,900 3,120 Climbing FlightAware ADS-B
05:30PM 30.4917 -95.6197 327° Northwest 367 422 20,500 2,820 Climbing FlightAware ADS-B
05:30PM 30.5190 -95.6398 328° Northwest 371 427 21,400 2,640 Climbing FlightAware ADS-B
05:30PM 30.5486 -95.6589 331° Northwest 376 433 22,200 1,920 Climbing FlightAware ADS-B
05:31PM 30.5976 -95.6855 335° Northwest 379 436 23,000 720 Climbing FlightAware ADS-B
05:31PM 30.6470 -95.7118 335° Northwest 381 438 23,000  Level FlightAware ADS-B
05:32PM 30.6974 -95.7385 336° Northwest 380 437 23,000  Level FlightAware ADS-B
05:33PM 30.7473 -95.7652 335° Northwest 381 438 23,000  Level FlightAware ADS-B
05:33PM 30.7964 -95.7916 335° Northwest 381 438 23,000 540 Level FlightAware ADS-B
05:35PM 30.9976 -95.8999 335° Northwest 387 445 24,500 1,320 Climbing FlightAware ADS-B
05:36PM 31.0955 -95.9525 335° Northwest 396 456 27,100 2,400 Climbing FlightAware ADS-B
05:37PM 31.1570 -95.9756 344° North 406 467 28,300 1,860 Climbing FlightAware ADS-B
05:37PM 31.2152 -95.9889 349° North 416 479 29,200 1,800 Climbing FlightAware ADS-B
05:38PM 31.2758 -96.0031 349° North 426 490 30,200 2,520 Climbing FlightAware ADS-B
05:39PM 31.4598 -96.0254 355° North 402 463 34,600 2,340 Climbing FlightAware ADS-B
05:40PM 31.5236 -96.0318 355° North 403 464 35,300 600 Climbing FlightAware ADS-B
05:42PM 31.8093 -96.0599 355° North 471 542 36,500 480 Climbing FlightAware ADS-B
05:43PM 31.8761 -96.0665 355° North 481 554 36,800 540 Climbing FlightAware ADS-B
05:43PM 31.9724 -96.0761 355° North 491 565 37,200 840 Climbing FlightAware ADS-B
05:44PM 32.0450 -96.0831 355° North 496 571 37,900 1,260 Climbing FlightAware ADS-B
05:45PM 32.1180 -96.0900 355° North 492 566 38,600 1,380 Climbing FlightAware
05:45PM 32.1362 -96.0922 354° North 496 571 38,800 1,140 Climbing FlightAware ADS-B
05:45PM 32.2130 -96.1000 355° North 492 566 39,400 840 Climbing FlightAware
05:47PM 32.4030 -96.1190 355° North 489 563 40,500 540 Climbing FlightAware
05:48PM 32.5880 -96.1380 355° North 481 554 41,000 180 Climbing FlightAware
05:49PM 32.6890 -96.1480 355° North 478 550 41,000  Level FlightAware
05:49PM 32.7780 -96.1570 355° North 480 552 41,000  Level FlightAware
05:50PM 32.9180 -96.1710 355° North 484 557 41,000  Level FlightAware
05:51PM 33.0130 -96.1810 355° North 485 558 41,000  Level FlightAware
05:52PM 33.1070 -96.1900 355° North 485 558 41,000  Level FlightAware
05:53PM 33.1950 -96.1990 355° North 483 556 41,000  Level FlightAware
05:53PM 33.2940 -96.2090 355° North 483 556 41,000  Level FlightAware
05:54PM 33.3880 -96.2190 355° North 486 559 41,000  Level FlightAware
05:55PM 33.4680 -96.2270 355° North 486 559 41,000  Level FlightAware
05:55PM 33.5780 -96.2200 North 502 578 41,000  Level FlightAware
05:56PM 33.6650 -96.1910 16° North 506 582 41,000  Level FlightAware
05:57PM 33.7670 -96.1560 16° North 507 583 41,000  Level FlightAware
05:57PM 33.8570 -96.1190 19° North 514 592 41,000  Level FlightAware
05:58PM 33.9450 -96.0580 30° Northeast 523 602 41,000  Level FlightAware
05:59PM 34.0250 -95.9940 34° Northeast 524 603 41,000  Level FlightAware
06:00PM 34.1100 -95.9260 34° Northeast 523 602 41,000  Level FlightAware
06:00PM 34.2050 -95.8510 33° Northeast 521 600 41,000  Level FlightAware
06:01PM 34.2790 -95.7920 33° Northeast 523 602 41,000  Level FlightAware
06:02PM 34.3620 -95.7250 34° Northeast 524 603 41,000  Level FlightAware
06:02PM 34.4520 -95.6540 33° Northeast 525 604 41,000  Level FlightAware
06:03PM 34.5440 -95.5800 34° Northeast 527 606 41,000  Level FlightAware
06:04PM 34.6220 -95.5170 34° Northeast 528 608 41,000  Level FlightAware
06:04PM 34.7020 -95.4530 33° Northeast 528 608 41,000  Level FlightAware
06:05PM 34.7930 -95.3830 32° Northeast 526 605 41,000  Level FlightAware
06:06PM 34.8770 -95.3180 32° Northeast 526 605 41,000  Level FlightAware
06:07PM 35.0290 -95.2010 32° Northeast 532 612 41,000  Level FlightAware
06:08PM 35.1190 -95.1320 32° Northeast 532 612 41,000  Level FlightAware
06:08PM 35.1880 -95.0790 32° Northeast 532 612 41,000  Level FlightAware
06:09PM 35.2850 -95.0020 33° Northeast 532 612 41,000  Level FlightAware
06:10PM 35.3730 -94.9330 33° Northeast 533 613 41,000  Level FlightAware
06:10PM 35.4550 -94.8690 32° Northeast 533 613 41,000  Level FlightAware
06:11PM 35.5430 -94.8000 33° Northeast 533 613 41,000  Level FlightAware
06:12PM 35.6280 -94.7340 32° Northeast 533 613 41,000  Level FlightAware
06:13PM 35.7150 -94.6650 33° Northeast 535 616 41,000  Level FlightAware
06:13PM 35.8020 -94.5950 33° Northeast 536 617 41,000  Level FlightAware
06:14PM 35.8890 -94.5270 32° Northeast 538 619 41,000  Level FlightAware
06:15PM 35.9780 -94.4560 33° Northeast 538 619 41,000  Level FlightAware
06:15PM 36.0620 -94.3890 33° Northeast 537 618 41,000  Level FlightAware
06:16PM 36.1520 -94.3170 33° Northeast 536 617 41,000  Level FlightAware
06:17PM 36.2360 -94.2500 33° Northeast 536 617 41,000  Level FlightAware
06:17PM 36.3280 -94.1760 33° Northeast 536 617 41,000  Level FlightAware
06:18PM 36.4200 -94.1020 33° Northeast 535 616 41,000  Level FlightAware
06:19PM 36.5020 -94.0350 33° Northeast 534 615 41,000  Level FlightAware
06:20PM 36.5880 -93.9660 33° Northeast 536 617 41,000  Level FlightAware
06:20PM 36.6690 -93.9000 33° Northeast 538 619 41,000  Level FlightAware
06:21PM 36.7630 -93.8230 33° Northeast 537 618 41,000  Level FlightAware
06:22PM 36.8550 -93.7480 33° Northeast 538 619 41,000  Level FlightAware
06:22PM 36.9380 -93.6800 33° Northeast 537 618 41,000  Level FlightAware
06:23PM 37.0210 -93.6110 34° Northeast 536 617 41,000  Level FlightAware
06:24PM 37.1130 -93.5350 33° Northeast 535 616 41,000  Level FlightAware
06:24PM 37.2030 -93.4610 33° Northeast 535 616 41,000  Level FlightAware
06:25PM 37.3140 -93.3690 33° Northeast 536 617 41,000  Level FlightAware
06:26PM 37.3940 -93.3010 34° Northeast 538 619 41,000  Level FlightAware
06:27PM 37.4890 -93.2120 37° Northeast 539 620 41,000  Level FlightAware
06:27PM 37.5690 -93.1370 37° Northeast 538 619 41,000  Level FlightAware
06:28PM 37.6540 -93.0580 36° Northeast 537 618 41,000  Level FlightAware
06:29PM 37.7340 -92.9840 36° Northeast 539 620 41,000  Level FlightAware
06:29PM 37.8140 -92.9090 37° Northeast 539 620 41,000  Level FlightAware
06:30PM 37.9050 -92.8240 36° Northeast 538 619 41,000  Level FlightAware
06:31PM 37.9870 -92.7480 36° Northeast 539 620 41,000  Level FlightAware
06:32PM 38.0570 -92.6820 37° Northeast 536 617 41,000  Level FlightAware
06:32PM 38.1570 -92.5870 37° Northeast 537 618 41,000  Level FlightAware
06:33PM 38.2390 -92.5100 36° Northeast 534 615 41,000  Level FlightAware
06:34PM 38.3070 -92.4460 36° Northeast 534 615 41,000  Level FlightAware
06:34PM 38.3800 -92.3780 36° Northeast 534 615 41,000  Level FlightAware
06:35PM 38.4630 -92.3010 36° Northeast 534 615 41,000  Level FlightAware
06:36PM 38.5720 -92.1920 38° Northeast 539 620 41,000  Level FlightAware
06:37PM 38.6420 -92.1270 36° Northeast 539 620 41,000  Level FlightAware
06:37PM 38.7340 -92.0370 37° Northeast 540 621 41,000  Level FlightAware
06:38PM 38.7950 -91.9780 37° Northeast 540 621 41,000  Level FlightAware
06:39PM 38.9060 -91.8700 37° Northeast 541 623 41,000  Level FlightAware
06:39PM 38.9810 -91.7980 37° Northeast 541 623 41,000  Level FlightAware
06:40PM 39.0980 -91.6830 37° Northeast 543 625 41,000  Level FlightAware
06:41PM 39.1680 -91.6150 37° Northeast 543 625 41,000  Level FlightAware
06:42PM 39.2680 -91.5170 37° Northeast 542 624 41,000  Level FlightAware
06:42PM 39.3420 -91.4440 37° Northeast 540 621 41,000  Level FlightAware
06:43PM 39.4400 -91.3480 37° Northeast 537 618 41,000  Level FlightAware
06:44PM 39.5230 -91.2650 38° Northeast 538 619 41,000  Level FlightAware
06:44PM 39.6000 -91.1880 38° Northeast 539 620 41,000  Level FlightAware
06:45PM 39.6880 -91.1010 37° Northeast 541 623 41,000  Level FlightAware
06:46PM 39.7670 -91.0220 38° Northeast 541 623 41,000 -120 Level FlightAware
06:47PM 39.8540 -90.9340 38° Northeast 540 621 40,900 -600 Descending FlightAware
06:47PM 39.9130 -90.8750 37° Northeast 537 618 40,200 -2,100 Descending FlightAware
06:48PM 40.0210 -90.7650 38° Northeast 538 619 38,000 -2,640 Descending FlightAware
06:48PM 40.0680 -90.7180 37° Northeast 540 621 37,000 -2,520 Descending FlightAware
06:49PM 40.1530 -90.6330 37° Northeast 545 627 35,200 -2,580 Descending FlightAware
06:50PM 40.2380 -90.5450 38° Northeast 549 632 33,400 -1,620 Descending FlightAware
06:50PM 40.3170 -90.4650 38° Northeast 545 627 33,000 -300 Descending FlightAware
06:51PM 40.4050 -90.3750 38° Northeast 544 626 33,000 -1,380 Level FlightAware
06:52PM 40.4950 -90.2820 38° Northeast 548 631 31,000 -2,280 Descending FlightAware
06:53PM 40.5730 -90.2010 38° Northeast 548 631 29,800 -1,500 Descending FlightAware
06:53PM 40.6620 -90.1090 38° Northeast 543 625 28,900 -1,200 Descending FlightAware
06:54PM 40.7340 -90.0340 38° Northeast 546 628 28,200 -1,200 Descending FlightAware
06:55PM 40.8140 -89.9510 38° Northeast 547 629 27,400 -1,200 Descending FlightAware
06:55PM 40.9040 -89.8570 38° Northeast 535 616 26,500 -1,140 Descending FlightAware
06:56PM 40.9870 -89.7700 38° Northeast 523 602 25,700 -1,080 Descending FlightAware
06:57PM 41.0590 -89.6950 38° Northeast 518 596 25,000 -1,140 Descending FlightAware
06:58PM 41.1380 -89.6060 40° Northeast 514 592 24,200 -1,680 Descending FlightAware
06:58PM 41.1970 -89.4960 54° Northeast 505 581 22,700 -2,280 Descending FlightAware
06:59PM 41.2420 -89.3850 62° Northeast 501 577 21,000 -2,160 Descending FlightAware
07:00PM 41.2800 -89.2920 61° Northeast 487 560 20,000 -1,920 Descending FlightAware
07:00PM 41.3320 -89.1610 62° Northeast 471 542 18,300 -2,220 Descending FlightAware
07:01PM 41.3720 -89.0610 62° Northeast 466 536 16,700 -2,400 Descending FlightAware
07:02PM 41.4160 -88.9500 62° Northeast 445 512 14,900 -2,580 Descending FlightAware
07:02PM 41.4550 -88.8540 62° Northeast 433 498 13,100 -2,400 Descending FlightAware
07:03PM 41.4910 -88.7620 62° Northeast 415 478 11,700 -1,440 Descending FlightAware
07:04PM 41.5300 -88.6640 62° Northeast 368 423 11,100 -480 Descending FlightAware
07:05PM 41.5610 -88.5840 63° Northeast 318 366 11,000 -120 Descending FlightAware
07:05PM 41.5910 -88.5080 62° Northeast 311 358 11,000 -540 Level FlightAware
07:06PM 41.6220 -88.4440 57° Northeast 303 349 10,300 -840 Descending FlightAware
07:07PM 41.6510 -88.3970 50° Northeast 299 344 10,000 -480 Descending FlightAware
07:07PM 41.6790 -88.3810 23° Northeast 297 342 9,900  Descending FlightAware
07:07PM 41.6930 -88.3730 23° Northeast 294 338 10,000 -960 Climbing FlightAware
07:08PM 41.7360 -88.3530 19° North 302 348 9,200 -1,380 Descending FlightAware
07:08PM 41.7680 -88.3380 19° North 275 316 8,700 -1,140 Descending FlightAware
07:09PM 41.8010 -88.3230 19° North 241 277 8,200 -900 Descending FlightAware
07:09PM 41.8290 -88.3160 11° North 223 257 7,900 -1,020 Descending FlightAware
07:09PM 41.8450 -88.3150 North 222 255 7,500 -1,620 Descending FlightAware
07:10PM 41.8740 -88.3160 359° North 225 259 6,700 -1,920 Descending FlightAware
07:10PM 41.8870 -88.3170 357° North 230 265 6,200 -2,100 Descending FlightAware
07:10PM 41.9180 -88.3190 357° North 239 275 5,300 -1,920 Descending FlightAware
07:11PM 41.9290 -88.3200 356° North 240 276 5,000 -1,320 Descending FlightAware
07:11PM 41.9640 -88.3060 17° North 233 268 4,300 -1,140 Descending FlightAware
07:11PM 41.9690 -88.2890 68° East 225 259 4,100 -480 Descending FlightAware
07:12PM 41.9680 -88.2480 92° East 222 255 4,000 -120 Descending FlightAware
07:12PM 41.9680 -88.2120 90° East 224 258 4,000  Level FlightAware
07:13PM 41.9680 -88.1740 90° East 207 238 4,000 -360 Level FlightAware
07:13PM 41.9680 -88.1420 90° East 191 220 3,700 -840 Descending FlightAware
07:14PM 41.9680 -88.1140 90° East 176 203 3,300 -1,020 Descending FlightAware
07:14PM 41.9690 -88.0670 88° East 165 190 2,600 -900 Descending FlightAware
07:15PM 41.9690 -88.0420 90° East 162 186 2,200 -900 Descending FlightAware
07:15PM 41.9690 -88.0140 90° East 131 151 1,800 -780 Descending FlightAware
07:16PM 41.9690 -87.9910 90° East 129 148 1,500 -600 Descending FlightAware
07:16PM 41.9690 -87.9790 90° East 132 152 1,400 -660 Descending FlightAware
07:17PM 41.9690 -87.9460 90° East 139 160 900 -780 Descending FlightAware
07:17PM 41.9690 -87.9310 90° East 137 158 700 -900 Descending FlightAware